IFP Airport (Laughlin/Bullhead Intl) Information

FAA: IFP - ICAO: KIFP

IFP Airport Location

State Arizona
County Mohave
City Bullhead City
IFP Airport is 1 mile north of Bullhead City, AZ.
Latitude 35-09-16.6000N
Longitude 114-33-33.6000W
Elevation 707ft

KIFP Airport METARs

METAR KIFP 032250Z 35012KT 10SM CLR 25/M05 A2998
Altimeter 29.98"
Temperature 25.0°C (77.0°F)
Wind 350° at 12KT
Clouds Skies are clear.
Visibility 10.0mi
Time observed: 2021-12-03T22:50:00Z

IFP Airport Details

Status Operational
Activation N/A
Ownership Public
Usage Public
Chart PHOENIX
ATC on-site Yes
Beacon schedule sunset-sunrise
Beacon color clear green

IFP Airport Contacts

Owner MOHAVE COUNTY
Owner address BOX 390, KINGMAN, AZ 86402
Owner phone N/A
Manager JEREMY KEATING
Manager address 2550 LAUGHLIN VIEW DR, BULLHEAD CITY, AZ 86429
Manager phone 928-754-2134

IFP Airport (Laughlin/Bullhead Intl) Radio Frequencies

IFP (Airport) Radio Frequencies

UNICOM N/A
Common traffic advisory frequency (CTAF) 123.9